Aviation Digital Data Service (ADDS)

Output produced by METARs form (1006 UTC 22 May 2018)
found at http://www.aviationweather.gov/adds/metars/
 
METAR text: KUCP 220956Z AUTO 00000KT 8SM -RA FEW003 SCT070 BKN110 17/17 A3004 RMK AO2 SLP180 P0002 T01720172
Conditions at: KUCP (NEW CASTLE MUNI , PA, US) observed 0956 UTC 22 May 2018
Temperature: 17.2°C (63°F)
Dewpoint: 17.2°C (63°F) [RH = 100%]
Pressure (altimeter): 30.04 inches Hg (1017.4 mb)
[Sea-level pressure: 1018.0 mb]
Winds: calm
Visibility: 8 miles (13 km)
Ceiling: 11000 feet AGL
Clouds: few clouds at 300 feet AGL
scattered clouds at 7000 feet AGL
broken clouds at 11000 feet AGL
Weather: -RA  (light rain)

METAR text: KUCP 220856Z AUTO 00000KT 8SM -RA OVC110 17/17 A3004 RMK AO2 SLP181 P0001 60006 T01720172 56015
Conditions at: KUCP (NEW CASTLE MUNI , PA, US) observed 0856 UTC 22 May 2018
Temperature: 17.2°C (63°F)
Dewpoint: 17.2°C (63°F) [RH = 100%]
Pressure (altimeter): 30.04 inches Hg (1017.4 mb)
[Sea-level pressure: 1018.1 mb]
Winds: calm
Visibility: 8 miles (13 km)
Ceiling: 11000 feet AGL
Clouds: overcast cloud deck at 11000 feet AGL
Weather: -RA  (light rain)

METAR text: KUCP 220756Z AUTO 00000KT 9SM -RA OVC100 17/17 A3006 RMK AO2 SLP186 P0001 T01720172
Conditions at: KUCP (NEW CASTLE MUNI , PA, US) observed 0756 UTC 22 May 2018
Temperature: 17.2°C (63°F)
Dewpoint: 17.2°C (63°F) [RH = 100%]
Pressure (altimeter): 30.06 inches Hg (1018.0 mb)
[Sea-level pressure: 1018.6 mb]
Winds: calm
Visibility: 9 miles (14 km)
Ceiling: 10000 feet AGL
Clouds: overcast cloud deck at 10000 feet AGL
Weather: -RA  (light rain)

METAR text: KUCP 220656Z AUTO VRB03KT 4SM -RA BR SCT003 BKN080 OVC110 17/17 A3007 RMK AO2 SLP192 P0004 T01720172
Conditions at: KUCP (NEW CASTLE MUNI , PA, US) observed 0656 UTC 22 May 2018
Temperature: 17.2°C (63°F)
Dewpoint: 17.2°C (63°F) [RH = 100%]
Pressure (altimeter): 30.07 inches Hg (1018.4 mb)
[Sea-level pressure: 1019.2 mb]
Winds: variable direction winds at 3 MPH (3 knots; 1.6 m/s)
Visibility: 4 miles (6 km)
Ceiling: 8000 feet AGL
Clouds: scattered clouds at 300 feet AGL
broken clouds at 8000 feet AGL
overcast cloud deck at 11000 feet AGL
Weather: -RA BR  (light rain, mist)

METAR text: KUCP 220556Z AUTO 00000KT 7SM -RA FEW070 OVC110 17/17 A3009 RMK AO2 TSE19 SLP198 P0013 60026 T01720172 10233 20172 50000
Conditions at: KUCP (NEW CASTLE MUNI , PA, US) observed 0556 UTC 22 May 2018
Temperature: 17.2°C (63°F)
Dewpoint: 17.2°C (63°F) [RH = 100%]
Pressure (altimeter): 30.09 inches Hg (1019.0 mb)
[Sea-level pressure: 1019.8 mb]
Winds: calm
Visibility: 7 miles (11 km)
Ceiling: 11000 feet AGL
Clouds: few clouds at 7000 feet AGL
overcast cloud deck at 11000 feet AGL
Weather: -RA  (light rain)

METAR text: KUCP 220530Z AUTO 21003KT 5SM RA BR SCT033 BKN070 OVC100 17/17 A3010 RMK AO2 LTG DSNT NW-E TSE19 P0009
Conditions at: KUCP (NEW CASTLE MUNI , PA, US) observed 0530 UTC 22 May 2018
Temperature: 17.0°C (63°F)
Dewpoint: 17.0°C (63°F) [RH = 100%]
Pressure (altimeter): 30.10 inches Hg (1019.4 mb)
Winds: from the SSW (210 degrees) at 3 MPH (3 knots; 1.6 m/s)
Visibility: 5 miles (8 km)
Ceiling: 7000 feet AGL
Clouds: scattered clouds at 3300 feet AGL
broken clouds at 7000 feet AGL
overcast cloud deck at 10000 feet AGL
Weather: RA BR  (rain, mist)

METAR text: KUCP 220456Z AUTO VRB04KT 10SM TSRA SCT042 BKN070 OVC100 18/18 A3011 RMK AO2 LTG DSNT SW AND W TSB02E17B32 SLP205 P0013 T01780178 402720122
Conditions at: KUCP (NEW CASTLE MUNI , PA, US) observed 0456 UTC 22 May 2018
Temperature: 17.8°C (64°F)
Dewpoint: 17.8°C (64°F) [RH = 100%]
Pressure (altimeter): 30.11 inches Hg (1019.7 mb)
[Sea-level pressure: 1020.5 mb]
Winds: variable direction winds at 5 MPH (4 knots; 2.1 m/s)
Visibility: 10 or more miles (16+ km)
Ceiling: 7000 feet AGL
Clouds: scattered clouds at 4200 feet AGL
broken clouds at 7000 feet AGL
overcast cloud deck at 10000 feet AGL
Weather: TSRA  (rain associated with thunderstorm(s))

METAR text: KUCP 220443Z AUTO 30006KT 6SM TSRA BR FEW025 BKN041 OVC049 18/18 A3011 RMK AO2 LTG DSNT SW AND W TSB02E17B32 P0011
Conditions at: KUCP (NEW CASTLE MUNI , PA, US) observed 0443 UTC 22 May 2018
Temperature: 18.0°C (64°F)
Dewpoint: 18.0°C (64°F) [RH = 100%]
Pressure (altimeter): 30.11 inches Hg (1019.7 mb)
Winds: from the WNW (300 degrees) at 7 MPH (6 knots; 3.1 m/s)
Visibility: 6 miles (10 km)
Ceiling: 4100 feet AGL
Clouds: few clouds at 2500 feet AGL
broken clouds at 4100 feet AGL
overcast cloud deck at 4900 feet AGL
Weather: TSRA BR  (rain associated with thunderstorm(s), mist)

METAR text: KUCP 220428Z AUTO 33006KT 10SM -RA OVC041 19/18 A3008 RMK AO2 LTG DSNT S-NW TSB02E17 P0000
Conditions at: KUCP (NEW CASTLE MUNI , PA, US) observed 0428 UTC 22 May 2018
Temperature: 19.0°C (66°F)
Dewpoint: 18.0°C (64°F) [RH = 94%]
Pressure (altimeter): 30.08 inches Hg (1018.7 mb)
Winds: from the NNW (330 degrees) at 7 MPH (6 knots; 3.1 m/s)
Visibility: 10 or more miles (16+ km)
Ceiling: 4100 feet AGL
Clouds: overcast cloud deck at 4100 feet AGL
Weather: -RA  (light rain)

METAR text: KUCP 220413Z AUTO 00000KT 10SM VCTS -RA OVC045 19/19 A3007 RMK AO2 LTG DSNT SW-N TSB02 P0000
Conditions at: KUCP (NEW CASTLE MUNI , PA, US) observed 0413 UTC 22 May 2018
Temperature: 19.0°C (66°F)
Dewpoint: 19.0°C (66°F) [RH = 100%]
Pressure (altimeter): 30.07 inches Hg (1018.4 mb)
Winds: calm
Visibility: 10 or more miles (16+ km)
Ceiling: 4500 feet AGL
Clouds: overcast cloud deck at 4500 feet AGL
Weather: VCTS -RA  (thunderstorm in vicinity, light rain)

METAR text: KUCP 220356Z AUTO 21003KT 10SM -RA BKN045 OVC050 19/17 A3007 RMK AO2 LTG DSNT W AND NW RAB49 SLP192 P0000 T01940172
Conditions at: KUCP (NEW CASTLE MUNI , PA, US) observed 0356 UTC 22 May 2018
Temperature: 19.4°C (67°F)
Dewpoint: 17.2°C (63°F) [RH = 87%]
Pressure (altimeter): 30.07 inches Hg (1018.4 mb)
[Sea-level pressure: 1019.2 mb]
Winds: from the SSW (210 degrees) at 3 MPH (3 knots; 1.6 m/s)
Visibility: 10 or more miles (16+ km)
Ceiling: 4500 feet AGL
Clouds: broken clouds at 4500 feet AGL
overcast cloud deck at 5000 feet AGL
Weather: -RA  (light rain)

METAR text: KUCP 220256Z AUTO 00000KT 10SM OVC049 20/18 A3009 RMK AO2 SLP198 T02000178 53001
Conditions at: KUCP (NEW CASTLE MUNI , PA, US) observed 0256 UTC 22 May 2018
Temperature: 20.0°C (68°F)
Dewpoint: 17.8°C (64°F) [RH = 87%]
Pressure (altimeter): 30.09 inches Hg (1019.0 mb)
[Sea-level pressure: 1019.8 mb]
Winds: calm
Visibility: 10 or more miles (16+ km)
Ceiling: 4900 feet AGL
Clouds: overcast cloud deck at 4900 feet AGL
Weather: automated observation with no human augmentation;
there may or may not be significant weather present at this time

METAR text: KUCP 220156Z AUTO 08003KT 10SM BKN110 22/16 A3008 RMK AO2 SLP196 T02170156
Conditions at: KUCP (NEW CASTLE MUNI , PA, US) observed 0156 UTC 22 May 2018
Temperature: 21.7°C (71°F)
Dewpoint: 15.6°C (60°F) [RH = 68%]
Pressure (altimeter): 30.08 inches Hg (1018.7 mb)
[Sea-level pressure: 1019.6 mb]
Winds: from the E (80 degrees) at 3 MPH (3 knots; 1.6 m/s)
Visibility: 10 or more miles (16+ km)
Ceiling: 11000 feet AGL
Clouds: broken clouds at 11000 feet AGL
Weather: automated observation with no human augmentation;
there may or may not be significant weather present at this time

METAR text: KUCP 220056Z AUTO 07003KT 10SM BKN110 22/16 A3009 RMK AO2 SLP198 T02170161
Conditions at: KUCP (NEW CASTLE MUNI , PA, US) observed 0056 UTC 22 May 2018
Temperature: 21.7°C (71°F)
Dewpoint: 16.1°C (61°F) [RH = 70%]
Pressure (altimeter): 30.09 inches Hg (1019.0 mb)
[Sea-level pressure: 1019.8 mb]
Winds: from the ENE (70 degrees) at 3 MPH (3 knots; 1.6 m/s)
Visibility: 10 or more miles (16+ km)
Ceiling: 11000 feet AGL
Clouds: broken clouds at 11000 feet AGL
Weather: automated observation with no human augmentation;
there may or may not be significant weather present at this time

METAR text: KUCP 212356Z AUTO 08004KT 10SM CLR 23/16 A3009 RMK AO2 SLP198 T02330161 10272 20233 55008
Conditions at: KUCP (NEW CASTLE MUNI , PA, US) observed 2356 UTC 21 May 2018
Temperature: 23.3°C (74°F)
Dewpoint: 16.1°C (61°F) [RH = 64%]
Pressure (altimeter): 30.09 inches Hg (1019.0 mb)
[Sea-level pressure: 1019.8 mb]
Winds: from the E (80 degrees) at 5 MPH (4 knots; 2.1 m/s)
Visibility: 10 or more miles (16+ km)
Ceiling: at least 12,000 feet AGL
Clouds: sky clear below 12,000 feet AGL
Weather: automated observation with no human augmentation;
there may or may not be significant weather present at this time

METAR text: KUCP 212256Z AUTO 00000KT 10SM CLR 25/16 A3008 RMK AO2 SLP194 T02500156
Conditions at: KUCP (NEW CASTLE MUNI , PA, US) observed 2256 UTC 21 May 2018
Temperature: 25.0°C (77°F)
Dewpoint: 15.6°C (60°F) [RH = 56%]
Pressure (altimeter): 30.08 inches Hg (1018.7 mb)
[Sea-level pressure: 1019.4 mb]
Winds: calm
Visibility: 10 or more miles (16+ km)
Ceiling: at least 12,000 feet AGL
Clouds: sky clear below 12,000 feet AGL
Weather: automated observation with no human augmentation;
there may or may not be significant weather present at this time

METAR text: KUCP 212156Z AUTO 00000KT 10SM CLR 27/15 A3009 RMK AO2 SLP200 T02670150
Conditions at: KUCP (NEW CASTLE MUNI , PA, US) observed 2156 UTC 21 May 2018
Temperature: 26.7°C (80°F)
Dewpoint: 15.0°C (59°F) [RH = 49%]
Pressure (altimeter): 30.09 inches Hg (1019.0 mb)
[Sea-level pressure: 1020.0 mb]
Winds: calm
Visibility: 10 or more miles (16+ km)
Ceiling: at least 12,000 feet AGL
Clouds: sky clear below 12,000 feet AGL
Weather: automated observation with no human augmentation;
there may or may not be significant weather present at this time

METAR text: KUCP 212056Z AUTO 00000KT 10SM CLR 26/15 A3011 RMK AO2 SLP206 T02610150 58020
Conditions at: KUCP (NEW CASTLE MUNI , PA, US) observed 2056 UTC 21 May 2018
Temperature: 26.1°C (79°F)
Dewpoint: 15.0°C (59°F) [RH = 50%]
Pressure (altimeter): 30.11 inches Hg (1019.7 mb)
[Sea-level pressure: 1020.6 mb]
Winds: calm
Visibility: 10 or more miles (16+ km)
Ceiling: at least 12,000 feet AGL
Clouds: sky clear below 12,000 feet AGL
Weather: automated observation with no human augmentation;
there may or may not be significant weather present at this time

METAR text: KUCP 211956Z AUTO VRB03KT 10SM FEW050 27/14 A3013 RMK AO2 SLP212 T02670144
Conditions at: KUCP (NEW CASTLE MUNI , PA, US) observed 1956 UTC 21 May 2018
Temperature: 26.7°C (80°F)
Dewpoint: 14.4°C (58°F) [RH = 47%]
Pressure (altimeter): 30.13 inches Hg (1020.4 mb)
[Sea-level pressure: 1021.2 mb]
Winds: variable direction winds at 3 MPH (3 knots; 1.6 m/s)
Visibility: 10 or more miles (16+ km)
Ceiling: at least 12,000 feet AGL
Clouds: few clouds at 5000 feet AGL
Weather: automated observation with no human augmentation;
there may or may not be significant weather present at this time

METAR text: KUCP 211856Z AUTO 00000KT 10SM CLR 24/14 A3015 RMK AO2 SLP222 T02440139
Conditions at: KUCP (NEW CASTLE MUNI , PA, US) observed 1856 UTC 21 May 2018
Temperature: 24.4°C (76°F)
Dewpoint: 13.9°C (57°F) [RH = 52%]
Pressure (altimeter): 30.15 inches Hg (1021.1 mb)
[Sea-level pressure: 1022.2 mb]
Winds: calm
Visibility: 10 or more miles (16+ km)
Ceiling: at least 12,000 feet AGL
Clouds: sky clear below 12,000 feet AGL
Weather: automated observation with no human augmentation;
there may or may not be significant weather present at this time

METAR text: KUCP 211756Z AUTO 04008KT 10SM CLR 24/14 A3017 RMK AO2 SLP227 T02390139 10244 20144 58021
Conditions at: KUCP (NEW CASTLE MUNI , PA, US) observed 1756 UTC 21 May 2018
Temperature: 23.9°C (75°F)
Dewpoint: 13.9°C (57°F) [RH = 54%]
Pressure (altimeter): 30.17 inches Hg (1021.8 mb)
[Sea-level pressure: 1022.7 mb]
Winds: from the NE (40 degrees) at 9 MPH (8 knots; 4.2 m/s)
Visibility: 10 or more miles (16+ km)
Ceiling: at least 12,000 feet AGL
Clouds: sky clear below 12,000 feet AGL
Weather: automated observation with no human augmentation;
there may or may not be significant weather present at this time

METAR text: KUCP 211656Z AUTO 04005KT 10SM CLR 23/13 A3020 RMK AO2 SLP237 T02280133
Conditions at: KUCP (NEW CASTLE MUNI , PA, US) observed 1656 UTC 21 May 2018
Temperature: 22.8°C (73°F)
Dewpoint: 13.3°C (56°F) [RH = 55%]
Pressure (altimeter): 30.20 inches Hg (1022.8 mb)
[Sea-level pressure: 1023.7 mb]
Winds: from the NE (40 degrees) at 6 MPH (5 knots; 2.6 m/s)
Visibility: 10 or more miles (16+ km)
Ceiling: at least 12,000 feet AGL
Clouds: sky clear below 12,000 feet AGL
Weather: automated observation with no human augmentation;
there may or may not be significant weather present at this time

METAR text: KUCP 211556Z AUTO 07004KT 10SM CLR 22/14 A3022 RMK AO2 SLP245 T02220139
Conditions at: KUCP (NEW CASTLE MUNI , PA, US) observed 1556 UTC 21 May 2018
Temperature: 22.2°C (72°F)
Dewpoint: 13.9°C (57°F) [RH = 59%]
Pressure (altimeter): 30.22 inches Hg (1023.5 mb)
[Sea-level pressure: 1024.5 mb]
Winds: from the ENE (70 degrees) at 5 MPH (4 knots; 2.1 m/s)
Visibility: 10 or more miles (16+ km)
Ceiling: at least 12,000 feet AGL
Clouds: sky clear below 12,000 feet AGL
Weather: automated observation with no human augmentation;
there may or may not be significant weather present at this time

METAR text: KUCP 211456Z AUTO 02003KT 10SM CLR 21/13 A3024 RMK AO2 SLP251 T02060133 58001
Conditions at: KUCP (NEW CASTLE MUNI , PA, US) observed 1456 UTC 21 May 2018
Temperature: 20.6°C (69°F)
Dewpoint: 13.3°C (56°F) [RH = 63%]
Pressure (altimeter): 30.24 inches Hg (1024.1 mb)
[Sea-level pressure: 1025.1 mb]
Winds: from the NNE (20 degrees) at 3 MPH (3 knots; 1.6 m/s)
Visibility: 10 or more miles (16+ km)
Ceiling: at least 12,000 feet AGL
Clouds: sky clear below 12,000 feet AGL
Weather: automated observation with no human augmentation;
there may or may not be significant weather present at this time

METAR text: KUCP 211356Z AUTO VRB05KT 10SM CLR 19/14 A3024 RMK AO2 SLP251 T01940144
Conditions at: KUCP (NEW CASTLE MUNI , PA, US) observed 1356 UTC 21 May 2018
Temperature: 19.4°C (67°F)
Dewpoint: 14.4°C (58°F) [RH = 73%]
Pressure (altimeter): 30.24 inches Hg (1024.1 mb)
[Sea-level pressure: 1025.1 mb]
Winds: variable direction winds at 6 MPH (5 knots; 2.6 m/s)
Visibility: 10 or more miles (16+ km)
Ceiling: at least 12,000 feet AGL
Clouds: sky clear below 12,000 feet AGL
Weather: automated observation with no human augmentation;
there may or may not be significant weather present at this time

METAR text: KUCP 211256Z AUTO 04006KT 10SM CLR 17/14 A3024 RMK AO2 SLP253 T01670139
Conditions at: KUCP (NEW CASTLE MUNI , PA, US) observed 1256 UTC 21 May 2018
Temperature: 16.7°C (62°F)
Dewpoint: 13.9°C (57°F) [RH = 84%]
Pressure (altimeter): 30.24 inches Hg (1024.1 mb)
[Sea-level pressure: 1025.3 mb]
Winds: from the NE (40 degrees) at 7 MPH (6 knots; 3.1 m/s)
Visibility: 10 or more miles (16+ km)
Ceiling: at least 12,000 feet AGL
Clouds: sky clear below 12,000 feet AGL
Weather: automated observation with no human augmentation;
there may or may not be significant weather present at this time

METAR text: KUCP 211156Z AUTO 04004KT 10SM CLR 14/14 A3024 RMK AO2 SLP252 T01440139 10144 20122 53012
Conditions at: KUCP (NEW CASTLE MUNI , PA, US) observed 1156 UTC 21 May 2018
Temperature: 14.4°C (58°F)
Dewpoint: 13.9°C (57°F) [RH = 97%]
Pressure (altimeter): 30.24 inches Hg (1024.1 mb)
[Sea-level pressure: 1025.2 mb]
Winds: from the NE (40 degrees) at 5 MPH (4 knots; 2.1 m/s)
Visibility: 10 or more miles (16+ km)
Ceiling: at least 12,000 feet AGL
Clouds: sky clear below 12,000 feet AGL
Weather: automated observation with no human augmentation;
there may or may not be significant weather present at this time

METAR text: KUCP 211056Z AUTO 00000KT 6SM BR CLR 13/13 A3022 RMK AO2 SLP248 T01280128
Conditions at: KUCP (NEW CASTLE MUNI , PA, US) observed 1056 UTC 21 May 2018
Temperature: 12.8°C (55°F)
Dewpoint: 12.8°C (55°F) [RH = 100%]
Pressure (altimeter): 30.22 inches Hg (1023.5 mb)
[Sea-level pressure: 1024.8 mb]
Winds: calm
Visibility: 6 miles (10 km)
Ceiling: at least 12,000 feet AGL
Clouds: sky clear below 12,000 feet AGL
Weather: BR  (mist)